createdAt,value
2022-08-30T00:01:03.238Z,10.85
2022-08-30T00:02:07.965Z,10.30
2022-08-30T00:03:14.692Z,10.15
2022-08-30T00:04:17.499Z,10.35
2022-08-30T00:05:19.515Z,10.63
2022-08-30T00:06:22.934Z,10.32
2022-08-30T00:07:25.343Z,10.23
2022-08-30T00:08:27.596Z,10.30
2022-08-30T00:09:31.304Z,10.95
2022-08-30T00:10:33.690Z,10.95
2022-08-30T00:11:36.322Z,10.57
2022-08-30T00:12:39.007Z,9.85
2022-08-30T00:13:43.342Z,10.15
2022-08-30T00:14:45.794Z,10.43
2022-08-30T00:15:48.750Z,11.15
2022-08-30T00:16:51.076Z,10.35
2022-08-30T00:17:54.482Z,10.07
2022-08-30T00:18:57.161Z,10.13
2022-08-30T00:20:00.207Z,10.68
2022-08-30T00:21:03.994Z,10.88
2022-08-30T00:22:07.327Z,10.20
2022-08-30T00:23:09.648Z,10.05
2022-08-30T00:24:11.673Z,11.07
2022-08-30T00:25:16.538Z,10.93
2022-08-30T00:26:21.109Z,10.93
2022-08-30T00:27:23.225Z,10.40
2022-08-30T00:28:25.331Z,10.35
2022-08-30T00:29:27.447Z,11.80
2022-08-30T00:30:29.704Z,10.82
2022-08-30T00:31:31.890Z,10.90
2022-08-30T00:32:34.172Z,10.80
2022-08-30T00:33:39.827Z,10.65
2022-08-30T00:34:41.818Z,10.80
2022-08-30T00:35:44.415Z,10.43
2022-08-30T00:36:47.068Z,10.57
2022-08-30T00:37:51.004Z,11.30
2022-08-30T00:38:53.005Z,10.98
2022-08-30T00:39:57.495Z,10.98
2022-08-30T00:41:02.392Z,10.88
2022-08-30T00:42:04.623Z,11.05
2022-08-30T00:43:09.958Z,10.88
2022-08-30T00:44:16.421Z,11.15
2022-08-30T00:45:25.159Z,10.65
2022-08-30T00:47:30.367Z,10.85
2022-08-30T00:48:37.088Z,10.95
2022-08-30T00:49:45.403Z,10.82
2022-08-30T00:50:53.607Z,10.95
2022-08-30T00:51:56.862Z,10.70
2022-08-30T00:53:01.758Z,11.15
2022-08-30T00:54:05.888Z,11.02
2022-08-30T00:55:09.706Z,10.80
2022-08-30T00:56:12.874Z,11.13
2022-08-30T00:57:15.783Z,11.23
2022-08-30T00:58:21.931Z,11.45
2022-08-30T00:59:26.104Z,10.52
2022-08-30T01:00:28.763Z,10.75
2022-08-30T01:01:34.045Z,10.70
2022-08-30T01:02:36.647Z,11.35
2022-08-30T01:03:39.550Z,11.75
2022-08-30T01:04:46.410Z,10.65
2022-08-30T01:05:51.744Z,11.00
2022-08-30T01:06:54.441Z,11.00
2022-08-30T01:07:56.580Z,11.40
2022-08-30T01:09:00.160Z,11.52
2022-08-30T01:10:05.444Z,11.98
2022-08-30T01:11:08.311Z,10.88
2022-08-30T01:12:11.467Z,11.35
2022-08-30T01:13:15.217Z,11.35
2022-08-30T01:14:17.816Z,11.70
2022-08-30T01:15:20.080Z,11.20
2022-08-30T01:16:25.664Z,11.25
2022-08-30T01:17:29.846Z,10.70
2022-08-30T01:18:32.546Z,10.50
2022-08-30T01:19:42.076Z,11.27
2022-08-30T01:20:53.630Z,11.48
2022-08-30T01:22:04.817Z,11.13
2022-08-30T01:23:13.732Z,10.45
2022-08-30T01:24:17.901Z,10.90
2022-08-30T01:25:27.696Z,10.73
2022-08-30T01:26:30.931Z,11.05
2022-08-30T01:27:36.600Z,11.07
2022-08-30T01:28:40.601Z,10.98
2022-08-30T01:29:46.247Z,11.55
2022-08-30T01:30:48.987Z,11.23
2022-08-30T01:31:52.194Z,11.57
2022-08-30T01:32:59.319Z,11.38
2022-08-30T01:34:02.286Z,11.02
2022-08-30T01:35:06.604Z,12.45
2022-08-30T01:36:12.852Z,11.38
2022-08-30T01:37:36.608Z,11.13
2022-08-30T01:38:50.457Z,11.48
2022-08-30T01:39:52.521Z,11.65
2022-08-30T01:41:00.189Z,12.45
2022-08-30T01:42:04.053Z,11.70
2022-08-30T01:43:07.075Z,12.55
2022-08-30T01:44:11.459Z,11.80
2022-08-30T01:45:14.022Z,11.65
2022-08-30T01:46:20.403Z,11.60
2022-08-30T01:47:23.118Z,11.82
2022-08-30T01:48:30.940Z,11.88
2022-08-30T01:49:33.918Z,12.00
2022-08-30T01:50:36.205Z,11.88
2022-08-30T01:51:42.967Z,12.15
2022-08-30T01:52:45.325Z,11.65
2022-08-30T01:53:47.612Z,10.73
2022-08-30T01:54:50.507Z,11.82
2022-08-30T01:55:52.741Z,11.65
2022-08-30T01:56:54.763Z,11.52
2022-08-30T01:57:56.806Z,11.85
2022-08-30T01:59:02.554Z,11.95
2022-08-30T02:00:09.438Z,11.95
2022-08-30T02:01:18.202Z,11.80
2022-08-30T02:02:26.116Z,11.80
2022-08-30T02:03:33.145Z,11.77
2022-08-30T02:04:36.948Z,11.68
2022-08-30T02:05:39.304Z,11.60
2022-08-30T02:06:41.829Z,11.88
2022-08-30T02:07:44.078Z,11.05
2022-08-30T02:08:46.883Z,12.10
2022-08-30T02:09:49.187Z,11.55
2022-08-30T02:10:51.512Z,11.75
2022-08-30T02:11:53.724Z,11.35
2022-08-30T02:12:55.892Z,12.32
2022-08-30T02:13:57.979Z,11.65
2022-08-30T02:15:00.976Z,12.05
2022-08-30T02:16:04.154Z,11.82
2022-08-30T02:17:11.291Z,11.38
2022-08-30T02:18:13.300Z,11.57
2022-08-30T02:19:18.175Z,12.20
2022-08-30T02:20:20.579Z,11.55
2022-08-30T02:21:23.337Z,12.23
2022-08-30T02:22:25.353Z,12.18
2022-08-30T02:23:27.866Z,12.25
2022-08-30T02:24:30.554Z,12.20
2022-08-30T02:25:32.828Z,11.27
2022-08-30T02:26:36.916Z,11.70
2022-08-30T02:27:39.191Z,11.57
2022-08-30T02:28:50.075Z,11.80
2022-08-30T02:29:55.632Z,12.77
2022-08-30T02:30:58.199Z,12.52
2022-08-30T02:32:03.199Z,12.13
2022-08-30T02:33:08.004Z,11.50
2022-08-30T02:34:10.396Z,12.75
2022-08-30T02:35:12.668Z,12.73
2022-08-30T02:36:18.297Z,11.45
2022-08-30T02:37:20.709Z,11.75
2022-08-30T02:38:27.234Z,12.38
2022-08-30T02:39:29.366Z,12.32
2022-08-30T02:40:31.687Z,12.60
2022-08-30T02:41:34.367Z,11.95
2022-08-30T02:42:37.759Z,12.13
2022-08-30T02:43:40.288Z,12.27
2022-08-30T02:44:42.459Z,12.57
2022-08-30T02:45:44.609Z,12.52
2022-08-30T02:46:48.260Z,12.38
2022-08-30T02:47:50.439Z,12.52
2022-08-30T02:48:54.615Z,12.23
2022-08-30T02:49:58.234Z,12.48
2022-08-30T02:51:07.227Z,12.15
2022-08-30T02:52:14.194Z,12.68
2022-08-30T02:53:16.924Z,13.10
2022-08-30T02:54:20.268Z,12.05
2022-08-30T02:55:23.593Z,13.43
2022-08-30T02:56:26.529Z,12.05
2022-08-30T02:57:29.639Z,13.35
2022-08-30T02:58:31.997Z,13.40
2022-08-30T02:59:41.847Z,12.93
2022-08-30T03:00:45.256Z,13.35
2022-08-30T03:01:47.541Z,13.18
2022-08-30T03:02:52.213Z,12.25
2022-08-30T03:03:54.449Z,13.20
2022-08-30T03:04:57.901Z,13.65
2022-08-30T03:06:00.161Z,12.35
2022-08-30T03:07:02.303Z,13.32
2022-08-30T03:08:06.713Z,13.20
2022-08-30T03:09:09.091Z,12.80
2022-08-30T03:10:12.172Z,13.32
2022-08-30T03:11:16.212Z,13.48
2022-08-30T03:12:18.471Z,13.10
2022-08-30T03:13:21.311Z,13.18
2022-08-30T03:14:24.381Z,12.52
2022-08-30T03:15:27.539Z,12.98
2022-08-30T03:16:29.754Z,12.48
2022-08-30T03:17:32.158Z,13.18
2022-08-30T03:18:34.406Z,12.48
2022-08-30T03:19:37.789Z,12.60
2022-08-30T03:20:46.335Z,12.40
2022-08-30T03:21:56.483Z,13.35
2022-08-30T03:22:58.546Z,12.55
2022-08-30T03:24:00.562Z,11.80
2022-08-30T03:25:03.905Z,12.68
2022-08-30T03:26:06.974Z,13.07
2022-08-30T03:27:09.243Z,13.50
2022-08-30T03:28:12.116Z,12.88
2022-08-30T03:29:14.489Z,13.38
2022-08-30T03:30:18.517Z,13.02
2022-08-30T03:31:23.388Z,13.32
2022-08-30T03:32:25.707Z,13.65
2022-08-30T03:33:28.451Z,13.23
2022-08-30T03:34:38.190Z,13.10
2022-08-30T03:35:40.913Z,12.60
2022-08-30T03:36:43.042Z,12.48
2022-08-30T03:37:46.277Z,12.77
2022-08-30T03:38:48.425Z,12.70
2022-08-30T03:39:50.596Z,13.13
2022-08-30T03:40:53.949Z,12.82
2022-08-30T03:41:56.151Z,13.68
2022-08-30T03:43:01.255Z,13.38
2022-08-30T03:44:04.365Z,12.80
2022-08-30T03:45:08.430Z,12.43
2022-08-30T03:46:11.565Z,12.90
2022-08-30T03:47:13.750Z,12.95
2022-08-30T03:48:15.954Z,12.57
2022-08-30T03:49:19.028Z,12.57
2022-08-30T03:50:22.023Z,13.02
2022-08-30T03:51:25.807Z,13.60
2022-08-30T03:52:28.527Z,12.52
2022-08-30T03:53:30.637Z,13.38
2022-08-30T03:54:33.394Z,13.93
2022-08-30T03:55:35.771Z,12.45
2022-08-30T03:56:38.051Z,13.13
2022-08-30T03:57:43.549Z,13.05
2022-08-30T03:58:45.983Z,12.95
2022-08-30T03:59:48.084Z,14.13
2022-08-30T04:00:50.406Z,13.80
2022-08-30T04:01:52.942Z,13.27
2022-08-30T04:02:55.219Z,13.55
2022-08-30T04:03:57.293Z,12.75
2022-08-30T04:04:59.391Z,12.38
2022-08-30T04:06:01.610Z,13.23
2022-08-30T04:07:04.021Z,13.10
2022-08-30T04:08:06.716Z,13.00
2022-08-30T04:09:10.363Z,13.25
2022-08-30T04:10:12.447Z,12.15
2022-08-30T04:11:17.716Z,11.73
2022-08-30T04:12:22.943Z,12.15
2022-08-30T04:13:25.786Z,13.35
2022-08-30T04:14:28.083Z,12.52
2022-08-30T04:15:30.520Z,12.15
2022-08-30T04:16:39.482Z,12.77
2022-08-30T04:17:41.866Z,14.20
2022-08-30T04:18:43.918Z,12.73
2022-08-30T04:19:46.067Z,12.40
2022-08-30T04:20:48.526Z,13.02
2022-08-30T04:21:50.695Z,12.45
2022-08-30T04:22:55.131Z,13.18
2022-08-30T04:23:57.695Z,12.32
2022-08-30T04:24:59.992Z,12.30
2022-08-30T04:26:02.248Z,13.18
2022-08-30T04:27:05.192Z,15.65
2022-08-30T04:28:08.276Z,12.60
2022-08-30T04:29:17.088Z,13.18
2022-08-30T04:31:22.319Z,13.00
2022-08-30T04:32:24.651Z,12.13
2022-08-30T04:33:26.781Z,11.80
2022-08-30T04:34:29.913Z,12.05
2022-08-30T04:35:32.131Z,12.93
2022-08-30T04:36:34.254Z,12.32
2022-08-30T04:37:38.723Z,13.23
2022-08-30T04:38:42.195Z,13.68
2022-08-30T04:39:44.288Z,12.65
2022-08-30T04:40:50.314Z,13.65
2022-08-30T04:41:52.576Z,13.65
2022-08-30T04:42:56.440Z,12.98
2022-08-30T04:44:03.634Z,13.35
2022-08-30T04:45:09.724Z,12.20
2022-08-30T04:46:14.121Z,13.80
2022-08-30T04:47:18.743Z,13.10
2022-08-30T04:48:25.445Z,14.07
2022-08-30T04:49:27.556Z,13.50
2022-08-30T04:50:30.009Z,13.63
2022-08-30T04:51:32.980Z,16.30
2022-08-30T04:52:35.159Z,14.30
2022-08-30T04:53:37.726Z,14.18
2022-08-30T04:54:40.126Z,14.70
2022-08-30T04:55:43.684Z,13.95
2022-08-30T04:56:48.539Z,13.68
2022-08-30T04:57:51.698Z,14.77
2022-08-30T04:58:55.571Z,14.73
2022-08-30T04:59:57.860Z,14.50
2022-08-30T05:01:00.212Z,14.45
2022-08-30T05:02:02.650Z,14.70
2022-08-30T05:03:04.985Z,13.80
2022-08-30T05:04:07.443Z,13.95
2022-08-30T05:05:29.114Z,16.95
2022-08-30T05:06:31.440Z,14.65
2022-08-30T05:07:33.857Z,14.38
2022-08-30T05:08:35.995Z,15.25
2022-08-30T05:09:38.108Z,14.02
2022-08-30T05:10:46.731Z,13.93
2022-08-30T05:11:49.228Z,14.00
2022-08-30T05:12:51.335Z,14.50
2022-08-30T05:13:54.010Z,14.27
2022-08-30T05:14:58.880Z,15.20
2022-08-30T05:16:02.181Z,14.13
2022-08-30T05:17:04.890Z,15.02
2022-08-30T05:18:09.091Z,15.25
2022-08-30T05:19:15.540Z,15.05
2022-08-30T05:20:18.162Z,15.15
2022-08-30T05:21:24.051Z,15.02
2022-08-30T05:22:26.091Z,15.48
2022-08-30T05:23:28.410Z,16.05
2022-08-30T05:24:32.242Z,15.05
2022-08-30T05:25:39.319Z,14.45
2022-08-30T05:26:41.425Z,16.05
2022-08-30T05:27:43.676Z,14.77
2022-08-30T05:28:47.004Z,15.27
2022-08-30T05:29:51.091Z,16.02
2022-08-30T05:30:53.508Z,15.85
2022-08-30T05:31:55.680Z,15.88
2022-08-30T05:32:58.279Z,15.57
2022-08-30T05:34:03.080Z,15.90
2022-08-30T05:35:07.020Z,16.00
2022-08-30T05:36:10.828Z,15.65
2022-08-30T05:37:12.896Z,15.90
2022-08-30T05:38:15.343Z,16.10
2022-08-30T05:39:17.640Z,16.83
2022-08-30T05:40:23.868Z,15.65
2022-08-30T05:41:27.329Z,16.92
2022-08-30T05:42:29.464Z,15.35
2022-08-30T05:43:31.823Z,15.95
2022-08-30T05:44:34.728Z,15.60
2022-08-30T05:45:37.861Z,17.33
2022-08-30T05:46:45.769Z,16.25
2022-08-30T05:47:48.241Z,15.73
2022-08-30T05:48:51.590Z,16.67
2022-08-30T05:49:54.020Z,16.10
2022-08-30T05:51:24.608Z,16.48
2022-08-30T05:52:26.701Z,16.23
2022-08-30T05:53:28.844Z,16.65
2022-08-30T05:54:31.000Z,16.23
2022-08-30T05:55:33.275Z,15.88
2022-08-30T05:56:37.846Z,16.08
2022-08-30T05:57:41.418Z,16.83
2022-08-30T05:58:44.180Z,16.35
2022-08-30T05:59:46.668Z,16.25
2022-08-30T06:00:48.916Z,16.58
2022-08-30T06:01:51.029Z,16.90
2022-08-30T06:02:54.709Z,17.00
2022-08-30T06:04:02.946Z,16.08
2022-08-30T06:05:06.323Z,16.75
2022-08-30T06:06:08.567Z,16.58
2022-08-30T06:07:15.301Z,16.00
2022-08-30T06:08:18.754Z,16.38
2022-08-30T06:09:21.999Z,16.88
2022-08-30T06:10:24.399Z,16.92
2022-08-30T06:11:27.503Z,16.80
2022-08-30T06:12:30.066Z,16.63
2022-08-30T06:13:32.849Z,17.77
2022-08-30T06:14:34.982Z,18.48
2022-08-30T06:15:37.703Z,17.40
2022-08-30T06:16:41.316Z,16.95
2022-08-30T06:17:43.323Z,16.58
2022-08-30T06:18:46.108Z,17.70
2022-08-30T06:19:48.343Z,17.15
2022-08-30T06:20:51.455Z,17.00
2022-08-30T06:21:53.490Z,16.17
2022-08-30T06:22:55.805Z,16.88
2022-08-30T06:23:58.689Z,18.10
2022-08-30T06:25:00.986Z,17.23
2022-08-30T06:26:06.370Z,16.92
2022-08-30T06:27:10.999Z,16.40
2022-08-30T06:28:13.702Z,16.77
2022-08-30T06:29:19.563Z,17.42
2022-08-30T06:30:21.704Z,15.82
2022-08-30T06:31:26.959Z,15.95
2022-08-30T06:32:29.776Z,16.60
2022-08-30T06:33:31.858Z,15.65
2022-08-30T06:34:33.963Z,15.18
2022-08-30T06:35:46.797Z,15.98
2022-08-30T06:37:59.446Z,15.32
2022-08-30T06:39:01.617Z,16.33
2022-08-30T06:40:04.495Z,16.33
2022-08-30T06:41:08.575Z,16.35
2022-08-30T06:42:10.676Z,17.35
2022-08-30T06:43:12.773Z,15.55
2022-08-30T06:44:15.167Z,15.90
2022-08-30T06:45:20.718Z,16.77
2022-08-30T06:46:29.269Z,15.52
2022-08-30T06:48:34.065Z,15.25
2022-08-30T06:49:36.251Z,15.52
2022-08-30T06:50:38.439Z,15.05
2022-08-30T06:52:04.263Z,15.60
2022-08-30T06:53:06.304Z,16.77
2022-08-30T06:54:10.858Z,16.55
2022-08-30T06:55:16.574Z,14.77
2022-08-30T06:56:19.790Z,16.15
2022-08-30T06:57:21.915Z,15.88
2022-08-30T06:58:24.382Z,15.00
2022-08-30T06:59:27.444Z,15.55
2022-08-30T07:00:30.427Z,15.45
2022-08-30T07:01:32.978Z,15.57
2022-08-30T07:02:38.546Z,15.85
2022-08-30T07:03:41.178Z,13.98
2022-08-30T07:04:43.290Z,15.70
2022-08-30T07:05:47.653Z,15.75
2022-08-30T07:06:49.817Z,14.93
2022-08-30T07:07:54.830Z,14.85
2022-08-30T07:08:57.642Z,15.73
2022-08-30T07:10:02.527Z,15.00
2022-08-30T07:11:05.668Z,14.65
2022-08-30T07:12:08.820Z,14.38
2022-08-30T07:13:11.523Z,16.42
2022-08-30T07:14:13.651Z,15.77
2022-08-30T07:15:16.804Z,15.38
2022-08-30T07:16:19.034Z,15.68
2022-08-30T07:17:39.746Z,14.43
2022-08-30T07:18:50.788Z,15.15
2022-08-30T07:19:52.949Z,15.43
2022-08-30T07:20:55.304Z,15.15
2022-08-30T07:21:59.605Z,15.35
2022-08-30T07:23:03.968Z,14.68
2022-08-30T07:24:10.111Z,15.05
2022-08-30T07:25:14.778Z,15.25
2022-08-30T07:26:21.203Z,15.02
2022-08-30T07:27:23.546Z,15.00
2022-08-30T07:28:25.852Z,15.23
2022-08-30T07:29:27.948Z,15.30
2022-08-30T07:30:29.963Z,15.98
2022-08-30T07:31:33.624Z,15.52
2022-08-30T07:32:35.755Z,15.98
2022-08-30T07:33:38.349Z,16.15
2022-08-30T07:34:40.481Z,14.95
2022-08-30T07:35:43.968Z,16.05
2022-08-30T07:36:46.096Z,16.00
2022-08-30T07:37:48.206Z,15.93
2022-08-30T07:38:51.736Z,15.68
2022-08-30T07:39:54.169Z,16.38
2022-08-30T07:40:59.330Z,16.35
2022-08-30T07:42:02.456Z,16.67
2022-08-30T07:43:05.836Z,15.30
2022-08-30T07:44:09.211Z,16.48
2022-08-30T07:45:12.405Z,15.80
2022-08-30T07:46:15.068Z,15.95
2022-08-30T07:47:17.321Z,15.35
2022-08-30T07:48:19.886Z,16.35
2022-08-30T07:49:22.017Z,16.05
2022-08-30T07:50:24.404Z,15.43
2022-08-30T07:51:28.874Z,15.73
2022-08-30T07:52:31.605Z,15.45
2022-08-30T07:53:33.677Z,15.98
2022-08-30T07:54:37.859Z,16.27
2022-08-30T07:55:42.788Z,15.48
2022-08-30T07:56:44.961Z,15.82
2022-08-30T07:57:47.096Z,15.60
2022-08-30T07:58:49.320Z,15.80
2022-08-30T07:59:53.361Z,16.48
2022-08-30T08:00:59.489Z,16.25
2022-08-30T08:02:01.634Z,15.52
2022-08-30T08:03:08.915Z,15.68
2022-08-30T08:04:11.000Z,16.27
2022-08-30T08:05:17.335Z,16.23
2022-08-30T08:06:22.434Z,16.27
2022-08-30T08:07:24.587Z,16.17
2022-08-30T08:08:26.870Z,16.85
2022-08-30T08:09:29.066Z,16.38
2022-08-30T08:10:32.435Z,16.70
2022-08-30T08:11:37.209Z,16.25
2022-08-30T08:12:40.548Z,16.05
2022-08-30T08:13:47.267Z,16.23
2022-08-30T08:14:56.482Z,15.90
2022-08-30T08:15:58.633Z,15.88
2022-08-30T08:17:01.443Z,17.13
2022-08-30T08:18:03.843Z,17.17
2022-08-30T08:19:09.270Z,16.30
2022-08-30T08:20:11.584Z,16.00
2022-08-30T08:21:13.892Z,16.05
2022-08-30T08:22:23.316Z,16.15
2022-08-30T08:23:25.730Z,15.73
2022-08-30T08:24:28.284Z,15.85
2022-08-30T08:25:33.030Z,15.60
2022-08-30T08:26:37.057Z,16.40
2022-08-30T08:27:39.267Z,16.10
2022-08-30T08:28:45.212Z,15.93
2022-08-30T08:29:47.320Z,17.08
2022-08-30T08:30:50.373Z,16.05
2022-08-30T08:31:52.432Z,16.15
2022-08-30T08:32:57.292Z,17.13
2022-08-30T08:35:03.855Z,15.95
2022-08-30T08:36:09.280Z,16.92
2022-08-30T08:37:11.751Z,15.32
2022-08-30T08:38:13.784Z,15.15
2022-08-30T08:39:18.899Z,16.27
2022-08-30T08:40:21.362Z,16.00
2022-08-30T08:41:45.115Z,16.27
2022-08-30T08:43:22.871Z,16.15
2022-08-30T08:45:04.613Z,16.45
2022-08-30T08:46:19.125Z,16.50
2022-08-30T08:47:53.025Z,16.05
2022-08-30T08:49:02.316Z,15.82
2022-08-30T08:50:18.736Z,16.45
2022-08-30T08:51:42.359Z,16.38
2022-08-30T08:53:45.275Z,15.82
2022-08-30T08:54:59.555Z,16.42
2022-08-30T08:56:15.239Z,15.38
2022-08-30T08:57:19.393Z,15.60
2022-08-30T08:58:29.189Z,16.17
2022-08-30T08:59:31.407Z,16.23
2022-08-30T09:00:33.666Z,15.85
2022-08-30T09:01:38.643Z,16.15
2022-08-30T09:02:45.307Z,17.10
2022-08-30T09:03:48.297Z,17.33
2022-08-30T09:04:53.978Z,16.67
2022-08-30T09:05:57.690Z,15.77
2022-08-30T09:07:24.894Z,17.02
2022-08-30T09:08:27.602Z,15.65
2022-08-30T09:09:38.856Z,16.35
2022-08-30T09:11:05.577Z,17.17
2022-08-30T09:12:12.051Z,17.02
2022-08-30T09:13:14.765Z,16.95
2022-08-30T09:14:30.363Z,18.15
2022-08-30T09:15:35.160Z,18.52
2022-08-30T09:16:52.536Z,17.52
2022-08-30T09:18:16.930Z,18.30
2022-08-30T09:19:27.849Z,18.23
2022-08-30T09:20:34.692Z,18.63
2022-08-30T09:21:37.023Z,17.73
2022-08-30T09:22:46.770Z,18.38
2022-08-30T09:23:59.345Z,18.77
2022-08-30T09:25:07.265Z,18.05
2022-08-30T09:26:09.835Z,18.70
2022-08-30T09:27:33.442Z,18.70
2022-08-30T09:28:49.798Z,18.00
2022-08-30T09:29:53.423Z,18.38
2022-08-30T09:31:11.349Z,19.42
2022-08-30T09:32:26.263Z,19.33
2022-08-30T09:33:29.098Z,20.17
2022-08-30T09:34:33.555Z,18.73
2022-08-30T09:35:46.937Z,20.05
2022-08-30T09:36:52.500Z,19.67
2022-08-30T09:38:05.136Z,19.50
2022-08-30T09:39:19.223Z,20.30
2022-08-30T09:40:27.354Z,18.42
2022-08-30T09:41:42.711Z,18.63
2022-08-30T09:43:01.086Z,18.98
2022-08-30T09:44:14.223Z,19.65
2022-08-30T09:45:28.508Z,19.67
2022-08-30T09:46:31.791Z,19.35
2022-08-30T09:47:34.606Z,20.23
2022-08-30T09:48:55.128Z,20.38
2022-08-30T09:50:28.287Z,19.90
2022-08-30T09:51:47.351Z,19.92
2022-08-30T09:53:11.973Z,20.30
2022-08-30T09:54:17.839Z,20.95
2022-08-30T09:55:39.026Z,20.60
2022-08-30T09:56:53.605Z,19.90
2022-08-30T09:58:15.216Z,20.20
2022-08-30T09:59:42.707Z,21.05
2022-08-30T10:01:10.026Z,21.73
2022-08-30T10:02:30.525Z,21.48
2022-08-30T10:03:59.590Z,21.23
2022-08-30T10:05:13.964Z,19.90
2022-08-30T10:06:45.802Z,20.15
2022-08-30T10:08:18.204Z,21.92
2022-08-30T10:09:48.982Z,20.45
2022-08-30T10:11:01.211Z,21.25
2022-08-30T10:12:12.764Z,21.40
2022-08-30T10:13:26.742Z,21.83
2022-08-30T10:14:48.920Z,22.27
2022-08-30T10:16:23.722Z,21.77
2022-08-30T10:17:48.998Z,20.70
2022-08-30T10:19:02.705Z,21.55
2022-08-30T10:20:17.898Z,21.05
2022-08-30T10:21:33.975Z,22.80
2022-08-30T10:22:58.668Z,21.17
2022-08-30T10:24:09.058Z,21.95
2022-08-30T10:25:17.809Z,23.17
2022-08-30T10:26:32.208Z,21.80
2022-08-30T10:27:46.168Z,23.02
2022-08-30T10:28:55.977Z,23.20
2022-08-30T10:30:24.457Z,21.73
2022-08-30T10:31:52.449Z,22.38
2022-08-30T10:33:16.398Z,25.35
2022-08-30T10:34:45.627Z,22.98
2022-08-30T10:35:55.232Z,23.05
2022-08-30T10:37:04.635Z,23.00
2022-08-30T10:38:15.905Z,21.85
2022-08-30T10:39:24.208Z,22.10
2022-08-30T10:40:59.330Z,22.58
2022-08-30T10:42:25.867Z,22.63
2022-08-30T10:43:45.556Z,23.67
2022-08-30T10:45:03.751Z,22.88
2022-08-30T10:46:14.547Z,22.52
2022-08-30T10:47:36.910Z,22.77
2022-08-30T10:48:47.521Z,21.85
2022-08-30T10:49:55.750Z,23.15
2022-08-30T10:51:04.932Z,22.90
2022-08-30T10:52:29.955Z,24.00
2022-08-30T10:53:45.026Z,22.92
2022-08-30T10:54:59.169Z,23.38
2022-08-30T10:56:03.973Z,23.33
2022-08-30T10:57:06.428Z,23.23
2022-08-30T10:58:09.098Z,23.13
2022-08-30T10:59:12.142Z,21.65
2022-08-30T11:00:26.730Z,23.40
2022-08-30T11:01:47.612Z,23.40
2022-08-30T11:02:58.668Z,23.00
2022-08-30T11:04:45.631Z,22.63
2022-08-30T11:06:12.844Z,22.15
2022-08-30T11:07:21.460Z,22.92
2022-08-30T11:08:49.255Z,22.00
2022-08-30T11:10:21.665Z,22.65
2022-08-30T11:11:58.936Z,22.23
2022-08-30T11:13:08.937Z,22.33
2022-08-30T11:14:15.901Z,21.60
2022-08-30T11:15:25.145Z,21.73
2022-08-30T11:16:54.896Z,21.85
2022-08-30T11:18:00.372Z,21.88
2022-08-30T11:19:02.956Z,22.50
2022-08-30T11:20:06.281Z,23.13
2022-08-30T11:21:23.524Z,23.13
2022-08-30T11:22:31.802Z,22.95
2022-08-30T11:23:36.838Z,22.67
2022-08-30T11:25:10.269Z,22.95
2022-08-30T11:26:16.995Z,22.25
2022-08-30T11:27:41.527Z,23.00
2022-08-30T11:28:46.476Z,22.75
2022-08-30T11:29:49.168Z,21.67
2022-08-30T11:31:04.415Z,21.95
2022-08-30T11:32:13.705Z,22.88
2022-08-30T11:33:22.897Z,23.30
2022-08-30T11:35:50.219Z,21.65
2022-08-30T11:36:52.969Z,21.00
2022-08-30T11:37:55.709Z,20.63
2022-08-30T11:39:01.377Z,21.00
2022-08-30T11:40:20.856Z,21.42
2022-08-30T11:41:42.072Z,21.02
2022-08-30T11:42:49.146Z,20.30
2022-08-30T11:43:54.468Z,19.90
2022-08-30T11:45:25.354Z,18.58
2022-08-30T11:46:28.892Z,19.45
2022-08-30T11:47:50.978Z,19.25
2022-08-30T11:49:13.387Z,18.55
2022-08-30T11:50:19.434Z,18.88
2022-08-30T11:51:33.586Z,18.55
2022-08-30T11:52:50.098Z,18.35
2022-08-30T11:54:04.173Z,18.83
2022-08-30T11:55:23.387Z,18.48
2022-08-30T11:56:33.687Z,18.90
2022-08-30T11:58:07.217Z,18.38
2022-08-30T12:00:35.482Z,19.00
2022-08-30T12:01:50.862Z,18.50
2022-08-30T12:03:00.394Z,18.67
2022-08-30T12:04:29.046Z,19.17
2022-08-30T12:05:54.946Z,19.02
2022-08-30T12:08:18.591Z,21.02
2022-08-30T12:09:30.363Z,19.92
2022-08-30T12:10:56.369Z,19.88
2022-08-30T12:12:08.031Z,18.98
2022-08-30T12:13:30.905Z,19.30
2022-08-30T12:14:48.525Z,19.65
2022-08-30T12:15:55.734Z,19.60
2022-08-30T12:17:16.542Z,18.70
2022-08-30T12:18:30.050Z,20.27
2022-08-30T12:19:35.363Z,19.35
2022-08-30T12:20:45.175Z,19.15
2022-08-30T12:21:59.213Z,17.77
2022-08-30T12:23:19.258Z,16.90
2022-08-30T12:24:27.695Z,16.40
2022-08-30T12:25:33.063Z,16.27
2022-08-30T12:26:42.900Z,16.40
2022-08-30T12:27:45.250Z,16.38
2022-08-30T12:28:49.834Z,18.80
2022-08-30T12:29:59.512Z,16.27
2022-08-30T12:31:11.744Z,16.92
2022-08-30T12:32:22.512Z,16.73
2022-08-30T12:33:39.517Z,17.65
2022-08-30T12:34:43.760Z,16.10
2022-08-30T12:35:46.013Z,17.42
2022-08-30T12:37:08.615Z,17.02
2022-08-30T12:38:27.462Z,17.60
2022-08-30T12:39:39.302Z,17.92
2022-08-30T12:40:58.034Z,17.48
2022-08-30T12:43:40.241Z,16.80
2022-08-30T12:44:45.703Z,17.13
2022-08-30T12:45:50.714Z,16.70
2022-08-30T12:47:03.240Z,17.05
2022-08-30T12:48:10.237Z,16.02
2022-08-30T12:49:16.973Z,15.77
2022-08-30T12:50:26.799Z,17.00
2022-08-30T12:51:41.427Z,16.05
2022-08-30T12:52:46.966Z,15.10
2022-08-30T12:53:51.261Z,15.15
2022-08-30T12:54:56.768Z,13.90
2022-08-30T12:56:05.029Z,14.43
2022-08-30T12:57:25.506Z,15.43
2022-08-30T12:58:44.617Z,14.52
2022-08-30T12:59:59.585Z,14.13
2022-08-30T13:01:28.602Z,15.30
2022-08-30T13:02:52.339Z,15.82
2022-08-30T13:04:02.642Z,15.15
2022-08-30T13:05:47.747Z,15.25
2022-08-30T13:07:00.307Z,15.98
2022-08-30T13:08:28.085Z,15.70
2022-08-30T13:09:43.087Z,15.45
2022-08-30T13:11:10.366Z,16.00
2022-08-30T13:12:25.909Z,15.60
2022-08-30T13:13:37.841Z,14.90
2022-08-30T13:14:43.649Z,15.57
2022-08-30T13:15:49.571Z,15.35
2022-08-30T13:17:20.289Z,15.65
2022-08-30T13:18:30.083Z,14.88
2022-08-30T13:19:41.453Z,15.68
2022-08-30T13:20:43.671Z,14.20
2022-08-30T13:21:56.653Z,14.15
2022-08-30T13:23:10.340Z,14.43
2022-08-30T13:24:14.208Z,14.77
2022-08-30T13:25:16.410Z,13.23
2022-08-30T13:26:23.095Z,12.05
2022-08-30T13:27:28.162Z,11.82
2022-08-30T13:28:48.033Z,10.13
2022-08-30T13:29:51.531Z,11.20
2022-08-30T13:30:56.696Z,10.82
2022-08-30T13:31:59.023Z,10.82
2022-08-30T13:33:04.404Z,11.50
2022-08-30T13:34:09.149Z,11.10
2022-08-30T13:35:12.804Z,11.13
2022-08-30T13:36:15.638Z,11.23
2022-08-30T13:38:47.611Z,11.05
2022-08-30T13:39:51.414Z,11.00
2022-08-30T13:40:53.686Z,11.00
2022-08-30T13:42:31.214Z,11.25
2022-08-30T13:43:18.480Z,13.48
2022-08-30T13:44:21.645Z,10.95
2022-08-30T13:46:54.173Z,10.73
2022-08-30T13:47:56.980Z,10.27
2022-08-30T13:50:36.913Z,11.18
2022-08-30T13:51:39.082Z,10.27
2022-08-30T13:52:41.593Z,11.40
2022-08-30T13:53:59.001Z,10.70
2022-08-30T13:55:01.263Z,10.48
2022-08-30T13:56:04.586Z,10.93
2022-08-30T13:57:07.160Z,10.98
2022-08-30T13:58:10.680Z,10.30
2022-08-30T13:59:16.917Z,10.60
2022-08-30T14:00:22.029Z,11.25
2022-08-30T14:01:24.165Z,10.70
2022-08-30T14:02:27.595Z,10.32
2022-08-30T14:03:29.799Z,11.55
2022-08-30T14:04:32.048Z,11.45
2022-08-30T14:06:21.828Z,10.27
2022-08-30T14:08:52.392Z,11.07
2022-08-30T14:10:30.309Z,11.30
2022-08-30T14:11:21.144Z,10.65
2022-08-30T14:12:52.321Z,10.60
2022-08-30T14:15:11.915Z,11.25
2022-08-30T14:16:29.592Z,11.25
2022-08-30T14:17:33.058Z,11.43
2022-08-30T14:18:35.692Z,11.63
2022-08-30T14:19:39.367Z,11.40
2022-08-30T14:20:41.554Z,11.63
2022-08-30T14:21:49.135Z,11.52
2022-08-30T14:22:52.097Z,11.63
2022-08-30T14:23:56.625Z,16.35
2022-08-30T14:25:01.661Z,12.27
2022-08-30T14:26:11.879Z,12.20
2022-08-30T14:27:14.080Z,11.38
2022-08-30T14:28:16.396Z,15.02
2022-08-30T14:29:22.433Z,14.10
2022-08-30T14:30:25.255Z,13.13
2022-08-30T14:31:27.586Z,13.05
2022-08-30T14:32:30.949Z,11.32
2022-08-30T14:33:33.472Z,11.10
2022-08-30T14:34:35.592Z,11.85
2022-08-30T14:35:38.063Z,12.93
2022-08-30T14:36:43.634Z,10.75
2022-08-30T14:37:50.231Z,10.98
2022-08-30T14:38:52.310Z,10.13
2022-08-30T14:39:54.665Z,11.90
2022-08-30T14:40:57.367Z,12.75
2022-08-30T14:42:04.208Z,11.32
2022-08-30T14:43:10.245Z,11.23
2022-08-30T14:44:14.773Z,10.80